createdAt,value
2019-03-31T00:01:08.019Z,7.69
2019-03-31T00:03:31.511Z,7.69
2019-03-31T00:06:01.547Z,7.69
2019-03-31T00:08:31.626Z,7.64
2019-03-31T00:11:01.422Z,7.57
2019-03-31T00:13:31.311Z,7.55
2019-03-31T00:16:01.476Z,7.50
2019-03-31T00:18:31.262Z,7.47
2019-03-31T00:21:01.053Z,7.48
2019-03-31T00:23:31.204Z,7.47
2019-03-31T00:26:00.971Z,7.40
2019-03-31T00:28:30.790Z,7.37
2019-03-31T00:31:00.571Z,7.40
2019-03-31T00:33:30.362Z,7.37
2019-03-31T00:36:00.133Z,7.28
2019-03-31T00:38:29.919Z,7.20
2019-03-31T00:40:59.711Z,7.18
2019-03-31T00:43:29.803Z,7.17
2019-03-31T00:45:59.648Z,7.17
2019-03-31T00:48:29.434Z,7.09
2019-03-31T00:50:59.246Z,7.03
2019-03-31T00:53:29.071Z,7.02
2019-03-31T00:55:58.939Z,6.99
2019-03-31T00:58:28.850Z,6.98
2019-03-31T01:01:18.066Z,6.95
2019-03-31T01:03:48.105Z,6.92
2019-03-31T01:06:19.136Z,6.89
2019-03-31T01:08:48.922Z,6.87
2019-03-31T01:11:24.228Z,6.89
2019-03-31T01:13:54.786Z,6.72
2019-03-31T01:16:25.575Z,6.72
2019-03-31T01:18:55.375Z,6.77
2019-03-31T01:21:25.248Z,6.76
2019-03-31T01:23:56.163Z,6.72
2019-03-31T01:26:26.102Z,6.67
2019-03-31T01:28:57.178Z,6.58
2019-03-31T01:31:28.413Z,6.53
2019-03-31T01:33:58.469Z,6.50
2019-03-31T01:36:28.653Z,6.43
2019-03-31T01:38:58.423Z,6.38
2019-03-31T01:41:28.208Z,6.31
2019-03-31T01:43:57.982Z,6.35
2019-03-31T01:46:29.165Z,6.37
2019-03-31T01:48:58.971Z,6.38
2019-03-31T01:51:28.743Z,6.37
2019-03-31T01:53:58.502Z,6.33
2019-03-31T01:56:28.290Z,6.32
2019-03-31T01:58:58.060Z,6.31
2019-03-31T02:01:28.109Z,6.35
2019-03-31T02:03:58.069Z,6.34
2019-03-31T02:06:27.874Z,6.30
2019-03-31T02:08:58.031Z,6.29
2019-03-31T02:11:27.824Z,6.31
2019-03-31T02:13:57.588Z,6.30
2019-03-31T02:16:27.458Z,6.23
2019-03-31T02:18:57.257Z,6.19
2019-03-31T02:21:27.059Z,6.02
2019-03-31T02:23:56.827Z,6.02
2019-03-31T02:26:26.619Z,6.03
2019-03-31T02:28:56.415Z,6.00
2019-03-31T02:31:27.106Z,6.01
2019-03-31T02:33:56.866Z,6.07
2019-03-31T02:36:26.647Z,6.06
2019-03-31T02:38:56.405Z,6.12
2019-03-31T02:41:26.179Z,6.06
2019-03-31T02:43:55.939Z,6.04
2019-03-31T02:46:25.818Z,6.00
2019-03-31T02:48:55.590Z,5.99
2019-03-31T02:51:25.743Z,5.95
2019-03-31T02:53:55.486Z,5.92
2019-03-31T02:56:26.172Z,5.87
2019-03-31T02:58:57.747Z,5.87
2019-03-31T03:01:27.704Z,5.84
2019-03-31T03:03:58.391Z,5.80
2019-03-31T03:06:30.845Z,5.80
2019-03-31T03:09:02.228Z,5.79
2019-03-31T03:11:32.875Z,5.87
2019-03-31T03:14:04.432Z,5.98
2019-03-31T03:16:34.254Z,5.99
2019-03-31T03:19:04.024Z,5.91
2019-03-31T03:21:33.776Z,5.70
2019-03-31T03:24:03.556Z,5.68
2019-03-31T03:26:33.330Z,5.73
2019-03-31T03:29:03.125Z,5.71
2019-03-31T03:31:32.914Z,5.74
2019-03-31T03:34:02.748Z,5.70
2019-03-31T03:36:32.511Z,5.69
2019-03-31T03:39:02.321Z,5.58
2019-03-31T03:41:32.098Z,5.60
2019-03-31T03:44:02.467Z,5.59
2019-03-31T03:46:32.705Z,5.61
2019-03-31T03:49:02.599Z,5.58
2019-03-31T03:51:32.389Z,5.60
2019-03-31T03:54:02.237Z,5.55
2019-03-31T03:56:32.016Z,5.58
2019-03-31T03:59:01.798Z,5.55
2019-03-31T04:01:33.015Z,5.54
2019-03-31T04:04:02.796Z,5.53
2019-03-31T04:06:32.571Z,5.51
2019-03-31T04:09:02.419Z,5.45
2019-03-31T04:11:32.293Z,5.44
2019-03-31T04:14:02.225Z,5.41
2019-03-31T04:16:32.059Z,5.42
2019-03-31T04:19:01.974Z,5.37
2019-03-31T04:21:31.743Z,5.22
2019-03-31T04:24:01.824Z,5.21
2019-03-31T04:26:31.602Z,5.12
2019-03-31T04:29:01.405Z,5.08
2019-03-31T04:31:31.169Z,5.11
2019-03-31T04:34:00.994Z,5.11
2019-03-31T04:36:30.741Z,5.14
2019-03-31T04:39:00.960Z,5.10
2019-03-31T04:41:30.788Z,5.04
2019-03-31T04:44:00.622Z,5.07
2019-03-31T04:46:30.378Z,5.04
2019-03-31T04:49:00.199Z,5.07
2019-03-31T04:51:29.963Z,5.13
2019-03-31T04:53:59.790Z,5.11
2019-03-31T04:56:29.576Z,5.23
2019-03-31T04:58:59.373Z,5.25
2019-03-31T05:01:29.433Z,5.21
2019-03-31T05:04:04.857Z,5.12
2019-03-31T05:06:30.706Z,5.04
2019-03-31T05:09:00.741Z,5.02
2019-03-31T05:11:30.524Z,5.17
2019-03-31T05:14:00.563Z,5.20
2019-03-31T05:16:30.370Z,5.17
2019-03-31T05:19:00.195Z,5.17
2019-03-31T05:21:29.982Z,5.17
2019-03-31T05:23:59.755Z,5.24
2019-03-31T05:26:29.592Z,5.18
2019-03-31T05:28:59.367Z,5.21
2019-03-31T05:31:29.185Z,5.34
2019-03-31T05:33:58.967Z,5.41
2019-03-31T05:36:28.782Z,5.45
2019-03-31T05:38:58.948Z,5.38
2019-03-31T05:41:28.788Z,5.37
2019-03-31T05:44:05.486Z,5.39
2019-03-31T05:46:30.374Z,5.52
2019-03-31T05:49:00.150Z,5.63
2019-03-31T05:51:29.971Z,5.72
2019-03-31T05:53:59.785Z,5.59
2019-03-31T05:56:29.616Z,5.65
2019-03-31T05:58:59.386Z,5.79
2019-03-31T06:01:29.392Z,5.92
2019-03-31T06:03:59.159Z,5.96
2019-03-31T06:06:28.952Z,5.95
2019-03-31T06:08:58.724Z,5.92
2019-03-31T06:11:28.540Z,5.79
2019-03-31T06:13:58.323Z,5.55
2019-03-31T06:16:28.127Z,5.52
2019-03-31T06:18:57.913Z,5.57
2019-03-31T06:21:29.307Z,5.78
2019-03-31T06:23:59.182Z,5.96
2019-03-31T06:26:29.032Z,6.04
2019-03-31T06:28:58.804Z,6.22
2019-03-31T06:31:28.580Z,6.40
2019-03-31T06:33:58.610Z,6.61
2019-03-31T06:36:28.414Z,6.74
2019-03-31T06:38:58.205Z,6.91
2019-03-31T06:41:28.006Z,7.07
2019-03-31T06:43:57.774Z,7.20
2019-03-31T06:46:27.629Z,7.31
2019-03-31T06:48:57.390Z,7.45
2019-03-31T06:51:27.186Z,7.62
2019-03-31T06:53:56.977Z,7.65
2019-03-31T06:56:26.787Z,7.89
2019-03-31T06:58:57.428Z,8.00
2019-03-31T07:01:27.300Z,8.15
2019-03-31T07:03:57.081Z,8.21
2019-03-31T07:06:26.896Z,8.11
2019-03-31T07:08:56.983Z,8.05
2019-03-31T07:11:27.079Z,7.97
2019-03-31T07:13:56.882Z,7.99
2019-03-31T07:16:26.677Z,8.26
2019-03-31T07:18:56.490Z,8.46
2019-03-31T07:21:26.307Z,8.50
2019-03-31T07:23:56.095Z,8.51
2019-03-31T07:26:26.259Z,8.62
2019-03-31T07:28:56.066Z,8.59
2019-03-31T07:31:26.266Z,8.65
2019-03-31T07:33:56.091Z,8.86
2019-03-31T07:36:25.923Z,9.02
2019-03-31T07:38:55.790Z,8.87
2019-03-31T07:41:25.635Z,8.99
2019-03-31T07:43:55.474Z,9.15
2019-03-31T07:46:25.447Z,9.32
2019-03-31T07:48:55.298Z,9.57
2019-03-31T07:51:25.106Z,9.73
2019-03-31T07:53:54.929Z,9.90
2019-03-31T07:56:24.697Z,9.99
2019-03-31T07:58:54.550Z,9.88
2019-03-31T08:01:24.374Z,10.07
2019-03-31T08:03:54.613Z,10.26
2019-03-31T08:06:24.415Z,10.32
2019-03-31T08:08:54.270Z,10.28
2019-03-31T08:11:24.066Z,10.41
2019-03-31T08:13:55.433Z,10.69
2019-03-31T08:16:25.399Z,10.94
2019-03-31T08:18:55.260Z,10.87
2019-03-31T08:21:25.332Z,10.99
2019-03-31T08:23:55.186Z,11.03
2019-03-31T08:26:24.978Z,11.00
2019-03-31T08:28:54.806Z,10.93
2019-03-31T08:31:24.582Z,10.86
2019-03-31T08:33:54.449Z,10.81
2019-03-31T08:36:24.263Z,10.90
2019-03-31T08:38:54.059Z,11.02
2019-03-31T08:41:23.822Z,11.00
2019-03-31T08:43:53.625Z,11.20
2019-03-31T08:46:23.402Z,11.46
2019-03-31T08:48:53.208Z,11.33
2019-03-31T08:51:23.017Z,11.51
2019-03-31T08:53:53.132Z,11.64
2019-03-31T08:56:22.955Z,11.57
2019-03-31T08:58:53.098Z,11.47
2019-03-31T09:01:23.087Z,11.56
2019-03-31T09:03:52.925Z,11.64
2019-03-31T09:06:22.754Z,11.62
2019-03-31T09:08:52.602Z,11.57
2019-03-31T09:11:22.385Z,11.81
2019-03-31T09:13:52.254Z,12.04
2019-03-31T09:16:22.040Z,12.21
2019-03-31T09:18:51.838Z,12.22
2019-03-31T09:21:21.656Z,12.08
2019-03-31T09:23:51.461Z,12.22
2019-03-31T09:26:21.298Z,12.36
2019-03-31T09:28:51.075Z,12.51
2019-03-31T09:31:20.923Z,12.77
2019-03-31T09:33:50.701Z,12.86
2019-03-31T09:36:20.524Z,12.86
2019-03-31T09:38:50.308Z,12.69
2019-03-31T09:41:20.136Z,12.80
2019-03-31T09:43:49.923Z,12.96
2019-03-31T09:46:19.767Z,13.09
2019-03-31T09:48:49.534Z,13.07
2019-03-31T09:51:19.696Z,13.32
2019-03-31T09:53:49.469Z,13.46
2019-03-31T09:56:19.316Z,13.49
2019-03-31T09:58:49.090Z,13.67
2019-03-31T10:01:19.770Z,13.81
2019-03-31T10:03:49.580Z,13.93
2019-03-31T10:06:30.250Z,14.03
2019-03-31T10:08:51.758Z,14.11
2019-03-31T10:11:21.614Z,14.31
2019-03-31T10:13:51.391Z,14.38
2019-03-31T10:16:21.507Z,14.70
2019-03-31T10:18:51.312Z,14.82
2019-03-31T10:21:21.123Z,14.73
2019-03-31T10:23:50.964Z,14.85
2019-03-31T10:26:31.030Z,14.90
2019-03-31T10:28:52.398Z,14.99
2019-03-31T10:31:22.208Z,15.10
2019-03-31T10:33:52.291Z,15.10
2019-03-31T10:36:22.885Z,15.24
2019-03-31T10:38:52.697Z,15.47
2019-03-31T10:41:22.533Z,15.38
2019-03-31T10:43:52.655Z,15.64
2019-03-31T10:46:22.321Z,15.69
2019-03-31T10:48:52.118Z,15.58
2019-03-31T10:51:22.254Z,15.45
2019-03-31T10:53:52.089Z,15.70
2019-03-31T10:56:22.339Z,16.09
2019-03-31T10:58:52.138Z,16.36
2019-03-31T11:01:22.006Z,16.54
2019-03-31T11:03:52.623Z,16.55
2019-03-31T11:06:22.757Z,16.81
2019-03-31T11:08:52.631Z,16.53
2019-03-31T11:11:22.466Z,16.33
2019-03-31T11:13:52.364Z,16.23
2019-03-31T11:16:22.225Z,16.05
2019-03-31T11:18:52.045Z,16.03
2019-03-31T11:21:49.889Z,15.82
2019-03-31T11:24:19.650Z,15.53
2019-03-31T11:26:49.456Z,15.42
2019-03-31T11:29:19.257Z,15.26
2019-03-31T11:31:49.098Z,15.54
2019-03-31T11:34:19.740Z,15.47
2019-03-31T11:36:49.752Z,15.37
2019-03-31T11:39:19.536Z,15.65
2019-03-31T11:41:49.758Z,15.74
2019-03-31T11:44:19.572Z,15.84
2019-03-31T11:46:50.414Z,15.50
2019-03-31T11:49:20.210Z,15.36
2019-03-31T11:51:50.035Z,15.46
2019-03-31T11:54:19.953Z,15.70
2019-03-31T11:56:49.803Z,15.46
2019-03-31T11:59:21.034Z,15.25
2019-03-31T12:01:51.035Z,15.11
2019-03-31T12:04:20.830Z,15.04
2019-03-31T12:06:50.995Z,15.25
2019-03-31T12:09:20.816Z,15.37
2019-03-31T12:11:50.664Z,15.21
2019-03-31T12:14:20.509Z,15.60
2019-03-31T12:16:50.341Z,15.34
2019-03-31T12:19:20.181Z,15.31
2019-03-31T12:21:50.031Z,15.29
2019-03-31T12:24:20.018Z,15.33
2019-03-31T12:26:49.819Z,15.47
2019-03-31T12:29:19.697Z,15.22
2019-03-31T12:31:49.582Z,15.38
2019-03-31T12:34:19.719Z,15.56
2019-03-31T12:36:49.831Z,15.94
2019-03-31T12:39:19.762Z,15.74
2019-03-31T12:41:49.608Z,15.96
2019-03-31T12:44:19.433Z,16.03
2019-03-31T12:46:49.250Z,16.41
2019-03-31T12:49:19.157Z,15.94
2019-03-31T12:51:49.032Z,15.98
2019-03-31T12:54:18.910Z,16.05
2019-03-31T12:56:48.782Z,16.14
2019-03-31T12:59:18.641Z,16.56
2019-03-31T13:01:48.884Z,16.64
2019-03-31T13:04:19.076Z,16.60
2019-03-31T13:06:48.933Z,16.69
2019-03-31T13:09:18.797Z,17.00
2019-03-31T13:11:50.421Z,17.24
2019-03-31T13:14:20.644Z,17.25
2019-03-31T13:16:50.480Z,17.25
2019-03-31T13:19:20.370Z,17.52
2019-03-31T13:21:50.578Z,17.88
2019-03-31T13:24:20.442Z,17.99
2019-03-31T13:26:50.236Z,18.06
2019-03-31T13:29:20.063Z,18.68
2019-03-31T13:31:49.888Z,18.68
2019-03-31T13:34:19.723Z,19.07
2019-03-31T13:36:49.553Z,20.21
2019-03-31T13:39:19.448Z,20.23
2019-03-31T13:41:49.202Z,20.48
2019-03-31T13:44:19.097Z,20.54
2019-03-31T13:46:48.857Z,20.71
2019-03-31T13:49:18.677Z,20.89
2019-03-31T13:51:48.464Z,21.12
2019-03-31T13:54:18.316Z,21.29
2019-03-31T13:56:50.061Z,20.94
2019-03-31T13:59:20.094Z,21.43
2019-03-31T14:01:49.821Z,22.51
2019-03-31T14:04:19.730Z,22.51
2019-03-31T14:06:49.792Z,22.96
2019-03-31T14:09:20.012Z,23.06
2019-03-31T14:11:50.397Z,22.61
2019-03-31T14:14:20.552Z,22.62
2019-03-31T14:16:50.363Z,22.47
2019-03-31T14:19:20.188Z,22.73
2019-03-31T14:21:50.009Z,22.78
2019-03-31T14:24:21.639Z,22.50
2019-03-31T14:26:51.421Z,22.47
2019-03-31T14:29:21.237Z,22.74
2019-03-31T14:31:52.108Z,22.76
2019-03-31T14:34:22.118Z,22.16
2019-03-31T14:36:51.884Z,22.36
2019-03-31T14:39:21.834Z,22.42
2019-03-31T14:41:51.616Z,22.09
2019-03-31T14:44:21.540Z,22.34
2019-03-31T14:46:51.424Z,22.36
2019-03-31T14:49:21.534Z,22.48
2019-03-31T14:51:51.347Z,22.23
2019-03-31T14:54:21.172Z,22.10
2019-03-31T14:56:51.034Z,21.81
2019-03-31T14:59:20.789Z,20.56
2019-03-31T15:01:50.583Z,20.76
2019-03-31T15:04:20.386Z,20.62
2019-03-31T15:06:50.220Z,21.13
2019-03-31T15:09:20.027Z,21.27
2019-03-31T15:11:49.901Z,21.94
2019-03-31T15:14:19.714Z,20.69
2019-03-31T15:16:49.532Z,20.56
2019-03-31T15:19:19.335Z,20.51
2019-03-31T15:21:49.182Z,20.35
2019-03-31T15:24:24.235Z,20.32
2019-03-31T15:26:54.467Z,20.67
2019-03-31T15:29:24.291Z,20.69
2019-03-31T15:31:54.146Z,20.54
2019-03-31T15:34:24.001Z,21.09
2019-03-31T15:36:53.800Z,20.86
2019-03-31T15:39:23.598Z,20.86
2019-03-31T15:41:53.446Z,21.47
2019-03-31T15:44:23.273Z,21.65
2019-03-31T15:46:53.385Z,21.28
2019-03-31T15:49:23.579Z,21.39
2019-03-31T15:51:53.663Z,21.61
2019-03-31T15:54:24.095Z,21.73
2019-03-31T15:56:53.957Z,21.46
2019-03-31T15:59:23.783Z,21.32
2019-03-31T16:01:53.677Z,21.19
2019-03-31T16:04:23.478Z,21.15
2019-03-31T16:06:53.259Z,21.10
2019-03-31T16:09:23.997Z,21.43
2019-03-31T16:11:54.365Z,21.03
2019-03-31T16:14:23.603Z,20.80
2019-03-31T16:16:52.845Z,21.03
2019-03-31T16:19:22.425Z,20.35
2019-03-31T16:21:51.729Z,20.24
2019-03-31T16:24:35.027Z,20.47
2019-03-31T16:27:04.972Z,20.19
2019-03-31T16:29:34.221Z,19.96
2019-03-31T16:32:03.785Z,19.55
2019-03-31T16:34:33.296Z,19.31
2019-03-31T16:37:02.590Z,18.74
2019-03-31T16:39:37.848Z,18.13
2019-03-31T16:42:02.812Z,17.32
2019-03-31T16:44:32.085Z,16.96
2019-03-31T16:47:01.663Z,16.52
2019-03-31T16:49:30.951Z,16.26
2019-03-31T16:52:00.299Z,16.19
2019-03-31T16:54:29.958Z,15.52
2019-03-31T16:56:59.226Z,15.13
2019-03-31T16:59:28.498Z,15.02
2019-03-31T17:01:57.748Z,14.66
2019-03-31T17:04:27.328Z,14.58
2019-03-31T17:06:56.577Z,14.56
2019-03-31T17:09:25.927Z,14.39
2019-03-31T17:11:55.407Z,14.32
2019-03-31T17:14:24.947Z,14.10
2019-03-31T17:16:54.197Z,14.00
2019-03-31T17:19:23.504Z,13.93
2019-03-31T17:21:52.769Z,13.93
2019-03-31T17:24:22.386Z,13.78
2019-03-31T17:26:52.115Z,13.62
2019-03-31T17:29:21.448Z,13.61
2019-03-31T17:31:50.685Z,13.44
2019-03-31T17:34:19.942Z,13.36
2019-03-31T17:36:49.191Z,13.28
2019-03-31T17:39:18.474Z,13.17
2019-03-31T17:41:47.716Z,13.12
2019-03-31T17:44:16.975Z,13.02
2019-03-31T17:46:46.244Z,12.88
2019-03-31T17:49:15.599Z,12.76
2019-03-31T17:51:44.887Z,12.70
2019-03-31T17:54:14.429Z,12.57
2019-03-31T17:56:44.015Z,12.43
2019-03-31T17:59:13.584Z,12.40
2019-03-31T18:01:42.882Z,12.30
2019-03-31T18:04:12.237Z,12.26
2019-03-31T18:06:41.903Z,12.29
2019-03-31T18:09:11.251Z,12.16
2019-03-31T18:11:40.838Z,12.10
2019-03-31T18:14:10.132Z,12.01
2019-03-31T18:16:39.408Z,11.97
2019-03-31T18:19:09.106Z,11.94
2019-03-31T18:21:38.488Z,11.88
2019-03-31T18:24:08.214Z,11.83
2019-03-31T18:26:37.826Z,11.73
2019-03-31T18:29:07.281Z,11.72
2019-03-31T18:31:37.177Z,11.62
2019-03-31T18:34:06.515Z,11.59
2019-03-31T18:36:37.226Z,11.58
2019-03-31T18:39:08.357Z,11.49
2019-03-31T18:41:37.762Z,11.43
2019-03-31T18:44:07.264Z,11.42
2019-03-31T18:46:36.827Z,11.38
2019-03-31T18:49:06.231Z,11.39
2019-03-31T18:51:35.557Z,11.31
2019-03-31T18:54:29.820Z,11.30
2019-03-31T18:57:24.026Z,11.28
2019-03-31T19:00:12.446Z,11.32
2019-03-31T19:03:09.599Z,11.30
2019-03-31T19:06:13.088Z,11.21
2019-03-31T19:08:48.462Z,11.18
2019-03-31T19:11:33.827Z,11.12
2019-03-31T19:14:31.330Z,11.06
2019-03-31T19:17:31.959Z,11.01
2019-03-31T19:20:38.882Z,10.91
2019-03-31T19:23:27.066Z,10.85
2019-03-31T19:26:15.580Z,10.79
2019-03-31T19:29:07.267Z,10.76
2019-03-31T19:31:59.783Z,10.72
2019-03-31T19:34:57.429Z,10.71
2019-03-31T19:37:55.089Z,10.66
2019-03-31T19:40:46.295Z,10.54
2019-03-31T19:43:22.348Z,10.45
2019-03-31T19:46:10.555Z,10.40
2019-03-31T19:48:58.750Z,10.31
2019-03-31T19:51:55.976Z,10.20
2019-03-31T19:54:53.195Z,10.19
2019-03-31T19:57:44.472Z,10.14
2019-03-31T20:00:22.943Z,10.06
2019-03-31T20:03:10.374Z,9.97
2019-03-31T20:06:06.601Z,9.97
2019-03-31T20:09:00.879Z,9.95
2019-03-31T20:11:35.739Z,9.94
2019-03-31T20:14:26.808Z,9.94
2019-03-31T20:17:14.652Z,9.81
2019-03-31T20:20:21.191Z,9.75
2019-03-31T20:23:18.541Z,9.68
2019-03-31T20:26:05.363Z,9.57
2019-03-31T20:28:53.554Z,9.43
2019-03-31T20:31:57.198Z,9.48
2019-03-31T20:34:32.311Z,9.39
2019-03-31T20:37:26.374Z,9.29
2019-03-31T20:40:20.892Z,9.30
2019-03-31T20:43:09.469Z,9.24
2019-03-31T20:45:39.066Z,9.19
2019-03-31T20:48:08.634Z,9.12
2019-03-31T20:50:37.863Z,9.08
2019-03-31T20:53:07.160Z,9.01
2019-03-31T20:55:36.642Z,8.95
2019-03-31T20:58:06.382Z,8.95
2019-03-31T21:00:35.962Z,8.95
2019-03-31T21:03:05.208Z,8.90
2019-03-31T21:05:34.439Z,8.93
2019-03-31T21:08:03.702Z,8.84
2019-03-31T21:10:33.200Z,8.75
2019-03-31T21:13:02.462Z,8.69
2019-03-31T21:15:31.683Z,8.67
2019-03-31T21:18:01.238Z,8.72
2019-03-31T21:20:30.535Z,8.71
2019-03-31T21:22:59.781Z,8.75
2019-03-31T21:25:28.999Z,8.74
2019-03-31T21:27:58.251Z,8.70
2019-03-31T21:30:27.559Z,8.79
2019-03-31T21:32:56.783Z,8.72
2019-03-31T21:35:26.072Z,8.62
2019-03-31T21:37:55.303Z,8.59
2019-03-31T21:40:24.559Z,8.55
2019-03-31T21:42:53.852Z,8.56
2019-03-31T21:45:23.106Z,8.50
2019-03-31T21:47:52.324Z,8.42
2019-03-31T21:50:21.591Z,8.42
2019-03-31T21:52:51.110Z,8.43
2019-03-31T21:55:20.349Z,8.43
2019-03-31T21:57:49.578Z,8.38
2019-03-31T22:00:20.753Z,8.31
2019-03-31T22:02:49.979Z,8.31
2019-03-31T22:05:19.219Z,8.29
2019-03-31T22:07:48.507Z,8.24
2019-03-31T22:10:18.046Z,8.09
2019-03-31T22:12:47.296Z,8.05
2019-03-31T22:15:16.532Z,7.98
2019-03-31T22:17:46.222Z,7.95
2019-03-31T22:20:16.068Z,7.87
2019-03-31T22:22:45.338Z,7.82
2019-03-31T22:25:14.694Z,7.86
2019-03-31T22:27:43.928Z,7.77
2019-03-31T22:30:13.287Z,7.75
2019-03-31T22:32:42.541Z,7.75
2019-03-31T22:35:12.070Z,7.66
2019-03-31T22:37:41.332Z,7.56
2019-03-31T22:40:12.226Z,7.55
2019-03-31T22:42:41.855Z,7.44
2019-03-31T22:45:11.174Z,7.47
2019-03-31T22:47:40.377Z,7.42
2019-03-31T22:50:10.111Z,7.31
2019-03-31T22:52:39.312Z,7.29
2019-03-31T22:55:08.898Z,7.27
2019-03-31T22:57:38.189Z,7.25
2019-03-31T23:00:09.443Z,7.21
2019-03-31T23:02:39.252Z,7.16
2019-03-31T23:05:08.935Z,7.19
2019-03-31T23:07:38.570Z,7.19
2019-03-31T23:10:08.101Z,7.13
2019-03-31T23:12:37.317Z,7.14
2019-03-31T23:15:06.707Z,7.21
2019-03-31T23:17:35.977Z,7.24
2019-03-31T23:20:05.633Z,7.24
2019-03-31T23:22:34.869Z,7.27
2019-03-31T23:25:04.127Z,7.27
2019-03-31T23:27:33.628Z,7.24
2019-03-31T23:30:04.504Z,7.22
2019-03-31T23:32:33.765Z,7.21
2019-03-31T23:35:02.989Z,7.16
2019-03-31T23:37:32.266Z,7.08
2019-03-31T23:40:01.502Z,7.02
2019-03-31T23:42:30.765Z,6.94
2019-03-31T23:44:59.988Z,6.90
2019-03-31T23:47:29.227Z,6.84
2019-03-31T23:49:58.446Z,6.77
2019-03-31T23:52:27.697Z,6.72
2019-03-31T23:54:56.923Z,6.64
2019-03-31T23:57:42.120Z,6.63
